sensor_id;sensor_type;location;lat;lon;timestamp;pressure;altitude;pressure_sealevel;temperature;humidity
70200;BME280;57587;55.688;37.600;2023-03-20T00:02:01;99993.00;;;1.22;55.83
70200;BME280;57587;55.688;37.600;2023-03-20T00:04:28;99990.97;;;1.26;55.74
70200;BME280;57587;55.688;37.600;2023-03-20T00:06:56;99993.13;;;1.32;55.51
70200;BME280;57587;55.688;37.600;2023-03-20T00:09:23;99989.44;;;1.34;55.31
70200;BME280;57587;55.688;37.600;2023-03-20T00:11:54;99989.22;;;1.37;55.78
70200;BME280;57587;55.688;37.600;2023-03-20T00:14:22;99990.41;;;1.33;55.61
70200;BME280;57587;55.688;37.600;2023-03-20T00:16:51;99999.47;;;1.29;55.69
70200;BME280;57587;55.688;37.600;2023-03-20T00:19:28;99995.69;;;1.33;56.08
70200;BME280;57587;55.688;37.600;2023-03-20T00:21:56;99996.38;;;1.35;55.47
70200;BME280;57587;55.688;37.600;2023-03-20T00:24:25;99996.38;;;1.35;55.64
70200;BME280;57587;55.688;37.600;2023-03-20T00:26:53;99993.53;;;1.38;55.83
70200;BME280;57587;55.688;37.600;2023-03-20T00:29:25;99988.25;;;1.38;55.88
70200;BME280;57587;55.688;37.600;2023-03-20T00:31:54;99989.09;;;1.39;55.73
70200;BME280;57587;55.688;37.600;2023-03-20T00:34:24;99989.94;;;1.40;55.57
70200;BME280;57587;55.688;37.600;2023-03-20T00:36:53;99978.53;;;1.39;55.74
70200;BME280;57587;55.688;37.600;2023-03-20T00:39:21;99977.69;;;1.38;55.50
70200;BME280;57587;55.688;37.600;2023-03-20T00:41:55;99983.56;;;1.42;55.91
70200;BME280;57587;55.688;37.600;2023-03-20T00:44:29;99978.06;;;1.45;55.41
70200;BME280;57587;55.688;37.600;2023-03-20T00:47:11;99981.44;;;1.47;54.88
70200;BME280;57587;55.688;37.600;2023-03-20T00:49:39;99982.88;;;1.51;55.22
70200;BME280;57587;55.688;37.600;2023-03-20T00:52:06;99983.97;;;1.49;55.19
70200;BME280;57587;55.688;37.600;2023-03-20T00:54:34;99989.88;;;1.52;54.98
70200;BME280;57587;55.688;37.600;2023-03-20T00:57:08;99971.50;;;1.51;55.03
70200;BME280;57587;55.688;37.600;2023-03-20T00:59:41;99975.09;;;1.50;55.47
70200;BME280;57587;55.688;37.600;2023-03-20T01:02:13;99974.03;;;1.52;54.80
70200;BME280;57587;55.688;37.600;2023-03-20T01:04:42;99962.41;;;1.55;54.86
70200;BME280;57587;55.688;37.600;2023-03-20T01:07:11;99972.97;;;1.55;55.48
70200;BME280;57587;55.688;37.600;2023-03-20T01:09:39;99969.38;;;1.56;55.16
70200;BME280;57587;55.688;37.600;2023-03-20T01:12:10;99978.94;;;1.57;55.27
70200;BME280;57587;55.688;37.600;2023-03-20T01:14:40;99971.03;;;1.57;55.05
70200;BME280;57587;55.688;37.600;2023-03-20T01:17:17;99972.72;;;1.58;55.12
70200;BME280;57587;55.688;37.600;2023-03-20T01:19:44;99967.94;;;1.52;55.20
70200;BME280;57587;55.688;37.600;2023-03-20T01:22:11;99962.53;;;1.53;54.72
70200;BME280;57587;55.688;37.600;2023-03-20T01:24:40;99965.75;;;1.57;54.82
70200;BME280;57587;55.688;37.600;2023-03-20T01:27:15;99973.81;;;1.55;54.68
70200;BME280;57587;55.688;37.600;2023-03-20T01:29:43;99954.25;;;1.58;54.47
70200;BME280;57587;55.688;37.600;2023-03-20T01:32:14;99958.44;;;1.60;54.88
70200;BME280;57587;55.688;37.600;2023-03-20T01:34:45;99953.78;;;1.64;54.77
70200;BME280;57587;55.688;37.600;2023-03-20T01:37:20;99956.41;;;1.64;54.65
70200;BME280;57587;55.688;37.600;2023-03-20T01:39:49;99949.38;;;1.65;55.04
70200;BME280;57587;55.688;37.600;2023-03-20T01:42:16;99949.97;;;1.68;54.63
70200;BME280;57587;55.688;37.600;2023-03-20T01:44:44;99950.31;;;1.64;55.14
70200;BME280;57587;55.688;37.600;2023-03-20T01:47:21;99943.13;;;1.66;55.13
70200;BME280;57587;55.688;37.600;2023-03-20T01:50:18;99947.06;;;1.60;54.66
70200;BME280;57587;55.688;37.600;2023-03-20T01:52:49;99938.09;;;1.63;54.50
70200;BME280;57587;55.688;37.600;2023-03-20T01:55:17;99940.59;;;1.64;54.09
70200;BME280;57587;55.688;37.600;2023-03-20T01:57:52;99933.28;;;1.56;54.07
70200;BME280;57587;55.688;37.600;2023-03-20T02:00:21;99925.00;;;1.50;53.91
70200;BME280;57587;55.688;37.600;2023-03-20T02:02:50;99930.78;;;1.55;53.32
70200;BME280;57587;55.688;37.600;2023-03-20T02:05:49;99927.28;;;1.54;53.14
70200;BME280;57587;55.688;37.600;2023-03-20T02:08:30;99925.00;;;1.61;52.83
70200;BME280;57587;55.688;37.600;2023-03-20T02:11:03;99930.78;;;1.66;52.31
70200;BME280;57587;55.688;37.600;2023-03-20T02:13:31;99921.28;;;1.64;52.64
70200;BME280;57587;55.688;37.600;2023-03-20T02:16:25;99933.66;;;1.63;52.39
70200;BME280;57587;55.688;37.600;2023-03-20T02:31:13;99918.75;;;1.51;49.98
70200;BME280;57587;55.688;37.600;2023-03-20T02:42:38;99917.19;;;1.48;49.79
70200;BME280;57587;55.688;37.600;2023-03-20T02:47:55;99914.44;;;1.50;49.13
70200;BME280;57587;55.688;37.600;2023-03-20T02:56:44;99904.50;;;1.53;48.16
70200;BME280;57587;55.688;37.600;2023-03-20T02:58:51;99900.78;;;1.56;48.87
70200;BME280;57587;55.688;37.600;2023-03-20T03:01:29;99896.72;;;1.52;49.72
70200;BME280;57587;55.688;37.600;2023-03-20T03:04:10;99898.88;;;1.47;49.63
70200;BME280;57587;55.688;37.600;2023-03-20T03:06:43;99895.50;;;1.45;50.04
70200;BME280;57587;55.688;37.600;2023-03-20T03:09:38;99901.50;;;1.47;49.42
70200;BME280;57587;55.688;37.600;2023-03-20T03:12:20;99889.88;;;1.49;49.11
70200;BME280;57587;55.688;37.600;2023-03-20T03:14:54;99903.53;;;1.54;49.37
70200;BME280;57587;55.688;37.600;2023-03-20T03:17:26;99899.97;;;1.55;49.42
70200;BME280;57587;55.688;37.600;2023-03-20T03:20:00;99895.75;;;1.53;49.54
70200;BME280;57587;55.688;37.600;2023-03-20T03:22:31;99886.88;;;1.54;49.01
70200;BME280;57587;55.688;37.600;2023-03-20T03:25:00;99887.47;;;1.57;49.21
70200;BME280;57587;55.688;37.600;2023-03-20T03:27:41;99881.03;;;1.61;48.53
70200;BME280;57587;55.688;37.600;2023-03-20T03:30:16;99879.81;;;1.66;48.76
70200;BME280;57587;55.688;37.600;2023-03-20T03:33:02;99872.00;;;1.64;48.30
70200;BME280;57587;55.688;37.600;2023-03-20T03:35:32;99879.59;;;1.69;48.58
70200;BME280;57587;55.688;37.600;2023-03-20T03:48:32;99868.06;;;1.81;48.53
70200;BME280;57587;55.688;37.600;2023-03-20T03:51:08;99876.56;;;1.84;48.38
70200;BME280;57587;55.688;37.600;2023-03-20T03:53:53;99872.72;;;1.89;48.45
70200;BME280;57587;55.688;37.600;2023-03-20T03:56:25;99873.09;;;1.95;48.51
70200;BME280;57587;55.688;37.600;2023-03-20T03:58:56;99862.53;;;2.06;47.48
70200;BME280;57587;55.688;37.600;2023-03-20T04:01:26;99861.69;;;2.17;47.05
70200;BME280;57587;55.688;37.600;2023-03-20T04:03:56;99860.31;;;2.23;47.18
70200;BME280;57587;55.688;37.600;2023-03-20T04:06:27;99857.81;;;2.33;47.41
70200;BME280;57587;55.688;37.600;2023-03-20T04:08:57;99864.25;;;2.40;47.10
70200;BME280;57587;55.688;37.600;2023-03-20T04:11:25;99859.16;;;2.59;46.78
70200;BME280;57587;55.688;37.600;2023-03-20T04:13:55;99856.94;;;2.96;46.15
70200;BME280;57587;55.688;37.600;2023-03-20T04:16:23;99858.50;;;3.20;46.15
70200;BME280;57587;55.688;37.600;2023-03-20T04:18:52;99861.75;;;3.54;45.06
70200;BME280;57587;55.688;37.600;2023-03-20T04:21:19;99864.09;;;4.19;43.41
70200;BME280;57587;55.688;37.600;2023-03-20T04:23:47;99858.84;;;4.57;42.48
70200;BME280;57587;55.688;37.600;2023-03-20T04:26:14;99860.09;;;4.82;41.80
70200;BME280;57587;55.688;37.600;2023-03-20T04:28:42;99846.13;;;5.09;41.60
70200;BME280;57587;55.688;37.600;2023-03-20T04:31:28;99847.84;;;5.58;40.19
70200;BME280;57587;55.688;37.600;2023-03-20T04:34:13;99851.72;;;6.28;38.89
70200;BME280;57587;55.688;37.600;2023-03-20T04:36:55;99841.69;;;7.11;37.81
70200;BME280;57587;55.688;37.600;2023-03-20T04:39:31;99851.59;;;7.79;37.27
70200;BME280;57587;55.688;37.600;2023-03-20T04:41:58;99853.13;;;8.32;36.39
70200;BME280;57587;55.688;37.600;2023-03-20T04:44:27;99841.56;;;8.91;34.77
70200;BME280;57587;55.688;37.600;2023-03-20T04:46:54;99849.66;;;9.71;33.47
70200;BME280;57587;55.688;37.600;2023-03-20T04:49:21;99845.28;;;10.57;32.20
70200;BME280;57587;55.688;37.600;2023-03-20T04:51:48;99847.97;;;11.03;30.50
70200;BME280;57587;55.688;37.600;2023-03-20T04:54:26;99840.09;;;11.39;29.78
70200;BME280;57587;55.688;37.600;2023-03-20T04:56:53;99846.06;;;11.94;29.03
70200;BME280;57587;55.688;37.600;2023-03-20T04:59:20;99843.69;;;12.93;27.76
70200;BME280;57587;55.688;37.600;2023-03-20T05:01:47;99838.19;;;13.86;26.25
70200;BME280;57587;55.688;37.600;2023-03-20T05:04:14;99836.03;;;14.70;24.40
70200;BME280;57587;55.688;37.600;2023-03-20T05:06:41;99839.78;;;15.76;23.86
70200;BME280;57587;55.688;37.600;2023-03-20T05:09:09;99846.47;;;16.70;21.81
70200;BME280;57587;55.688;37.600;2023-03-20T05:11:37;99848.94;;;17.60;21.33
70200;BME280;57587;55.688;37.600;2023-03-20T05:14:04;99840.25;;;18.13;19.84
70200;BME280;57587;55.688;37.600;2023-03-20T05:17:00;99839.06;;;19.29;19.56
70200;BME280;57587;55.688;37.600;2023-03-20T05:19:39;99842.22;;;19.38;20.03
70200;BME280;57587;55.688;37.600;2023-03-20T05:22:33;99841.31;;;19.32;19.61
70200;BME280;57587;55.688;37.600;2023-03-20T05:25:09;99841.47;;;19.07;19.86
70200;BME280;57587;55.688;37.600;2023-03-20T05:27:54;99848.69;;;18.05;20.69
70200;BME280;57587;55.688;37.600;2023-03-20T05:30:37;99844.81;;;16.69;21.57
70200;BME280;57587;55.688;37.600;2023-03-20T05:33:25;99837.72;;;15.64;21.88
70200;BME280;57587;55.688;37.600;2023-03-20T05:36:24;99835.72;;;14.39;22.88
70200;BME280;57587;55.688;37.600;2023-03-20T05:38:51;99846.19;;;13.72;23.48
70200;BME280;57587;55.688;37.600;2023-03-20T05:41:40;99841.50;;;12.82;24.80
70200;BME280;57587;55.688;37.600;2023-03-20T05:44:30;99844.22;;;11.94;25.59
70200;BME280;57587;55.688;37.600;2023-03-20T05:47:15;99836.13;;;11.50;25.87
70200;BME280;57587;55.688;37.600;2023-03-20T05:50:00;99838.50;;;11.15;26.76
70200;BME280;57587;55.688;37.600;2023-03-20T05:52:48;99837.56;;;10.85;26.95
70200;BME280;57587;55.688;37.600;2023-03-20T05:55:32;99840.03;;;11.10;27.19
70200;BME280;57587;55.688;37.600;2023-03-20T05:58:22;99837.00;;;11.80;26.11
70200;BME280;57587;55.688;37.600;2023-03-20T06:00:58;99848.19;;;12.50;24.25
70200;BME280;57587;55.688;37.600;2023-03-20T06:04:01;99850.13;;;12.77;23.83
70200;BME280;57587;55.688;37.600;2023-03-20T06:06:58;99850.25;;;12.90;23.36
70200;BME280;57587;55.688;37.600;2023-03-20T06:09:26;99854.13;;;12.66;23.83
70200;BME280;57587;55.688;37.600;2023-03-20T06:11:54;99851.84;;;12.42;24.22
70200;BME280;57587;55.688;37.600;2023-03-20T06:14:22;99853.41;;;12.36;24.69
70200;BME280;57587;55.688;37.600;2023-03-20T06:16:55;99848.16;;;12.28;24.54
70200;BME280;57587;55.688;37.600;2023-03-20T06:19:24;99851.28;;;12.32;24.98
70200;BME280;57587;55.688;37.600;2023-03-20T06:21:52;99841.75;;;12.29;23.65
70200;BME280;57587;55.688;37.600;2023-03-20T06:24:20;99847.63;;;12.03;23.56
70200;BME280;57587;55.688;37.600;2023-03-20T06:26:50;99835.44;;;11.86;24.01
70200;BME280;57587;55.688;37.600;2023-03-20T06:29:20;99843.63;;;11.84;23.14
70200;BME280;57587;55.688;37.600;2023-03-20T06:31:51;99837.44;;;11.69;23.19
70200;BME280;57587;55.688;37.600;2023-03-20T06:34:25;99839.94;;;11.56;23.73
70200;BME280;57587;55.688;37.600;2023-03-20T06:36:52;99841.97;;;11.53;23.34
70200;BME280;57587;55.688;37.600;2023-03-20T06:39:22;99834.00;;;11.45;22.52
70200;BME280;57587;55.688;37.600;2023-03-20T06:41:51;99830.38;;;11.38;22.88
70200;BME280;57587;55.688;37.600;2023-03-20T06:44:21;99828.53;;;11.39;22.17
70200;BME280;57587;55.688;37.600;2023-03-20T06:47:08;99834.03;;;11.75;21.34
70200;BME280;57587;55.688;37.600;2023-03-20T06:49:36;99826.94;;;12.48;20.99
70200;BME280;57587;55.688;37.600;2023-03-20T06:52:04;99821.22;;;13.50;20.53
70200;BME280;57587;55.688;37.600;2023-03-20T06:54:32;99826.44;;;14.48;20.32
70200;BME280;57587;55.688;37.600;2023-03-20T06:56:59;99824.69;;;14.95;19.45
70200;BME280;57587;55.688;37.600;2023-03-20T06:59:27;99830.91;;;15.15;18.98
70200;BME280;57587;55.688;37.600;2023-03-20T07:01:56;99825.69;;;15.54;18.49
70200;BME280;57587;55.688;37.600;2023-03-20T07:04:25;99819.88;;;15.63;18.34
70200;BME280;57587;55.688;37.600;2023-03-20T07:06:58;99823.75;;;15.94;18.53
70200;BME280;57587;55.688;37.600;2023-03-20T07:09:25;99825.63;;;15.94;18.52
70200;BME280;57587;55.688;37.600;2023-03-20T07:11:52;99817.78;;;15.79;18.74
70200;BME280;57587;55.688;37.600;2023-03-20T07:14:21;99813.25;;;15.59;19.15
70200;BME280;57587;55.688;37.600;2023-03-20T07:17:02;99810.34;;;15.48;18.78
70200;BME280;57587;55.688;37.600;2023-03-20T07:19:31;99803.72;;;15.50;19.27
70200;BME280;57587;55.688;37.600;2023-03-20T07:22:01;99806.63;;;15.55;18.42
70200;BME280;57587;55.688;37.600;2023-03-20T07:24:36;99801.91;;;15.17;18.73
70200;BME280;57587;55.688;37.600;2023-03-20T07:27:03;99806.66;;;15.15;19.85
70200;BME280;57587;55.688;37.600;2023-03-20T07:29:32;99805.56;;;15.56;18.57
70200;BME280;57587;55.688;37.600;2023-03-20T07:32:01;99811.19;;;15.68;18.94
70200;BME280;57587;55.688;37.600;2023-03-20T07:34:33;99805.41;;;15.25;19.19
70200;BME280;57587;55.688;37.600;2023-03-20T07:37:00;99800.84;;;14.79;19.86
70200;BME280;57587;55.688;37.600;2023-03-20T07:39:29;99807.22;;;14.51;19.45
70200;BME280;57587;55.688;37.600;2023-03-20T07:42:15;99809.50;;;14.54;20.46
70200;BME280;57587;55.688;37.600;2023-03-20T07:44:50;99797.09;;;14.80;20.47
70200;BME280;57587;55.688;37.600;2023-03-20T07:47:18;99797.53;;;15.03;19.46
70200;BME280;57587;55.688;37.600;2023-03-20T07:49:45;99796.28;;;15.26;19.39
70200;BME280;57587;55.688;37.600;2023-03-20T07:52:13;99795.88;;;14.89;19.23
70200;BME280;57587;55.688;37.600;2023-03-20T07:54:40;99797.09;;;14.66;19.55
70200;BME280;57587;55.688;37.600;2023-03-20T07:57:07;99797.47;;;14.50;20.15
70200;BME280;57587;55.688;37.600;2023-03-20T07:59:34;99789.63;;;15.35;19.04
70200;BME280;57587;55.688;37.600;2023-03-20T08:02:04;99798.41;;;16.85;17.51
70200;BME280;57587;55.688;37.600;2023-03-20T08:04:31;99792.72;;;18.47;16.43
70200;BME280;57587;55.688;37.600;2023-03-20T08:06:59;99789.63;;;19.39;16.21
70200;BME280;57587;55.688;37.600;2023-03-20T08:09:26;99797.75;;;20.26;14.96
70200;BME280;57587;55.688;37.600;2023-03-20T08:11:59;99796.59;;;20.22;14.58
70200;BME280;57587;55.688;37.600;2023-03-20T08:14:26;99794.63;;;20.06;15.02
70200;BME280;57587;55.688;37.600;2023-03-20T08:16:53;99788.28;;;21.03;14.26
70200;BME280;57587;55.688;37.600;2023-03-20T08:19:39;99791.06;;;22.74;13.58
70200;BME280;57587;55.688;37.600;2023-03-20T08:22:06;99778.81;;;23.88;12.58
70200;BME280;57587;55.688;37.600;2023-03-20T08:24:34;99790.03;;;22.80;12.76
70200;BME280;57587;55.688;37.600;2023-03-20T08:27:01;99777.50;;;22.52;13.19
70200;BME280;57587;55.688;37.600;2023-03-20T08:29:29;99772.66;;;22.32;13.06
70200;BME280;57587;55.688;37.600;2023-03-20T08:31:56;99778.50;;;22.73;12.97
70200;BME280;57587;55.688;37.600;2023-03-20T08:34:23;99772.34;;;22.83;13.02
70200;BME280;57587;55.688;37.600;2023-03-20T08:36:50;99775.00;;;23.89;12.21
70200;BME280;57587;55.688;37.600;2023-03-20T08:39:18;99772.50;;;25.12;11.63
70200;BME280;57587;55.688;37.600;2023-03-20T08:41:45;99772.41;;;25.84;11.02
70200;BME280;57587;55.688;37.600;2023-03-20T08:44:12;99765.06;;;26.29;11.13
70200;BME280;57587;55.688;37.600;2023-03-20T08:46:39;99767.22;;;26.32;10.56
70200;BME280;57587;55.688;37.600;2023-03-20T08:49:06;99770.28;;;25.45;10.46
70200;BME280;57587;55.688;37.600;2023-03-20T08:51:34;99761.69;;;24.19;11.23
70200;BME280;57587;55.688;37.600;2023-03-20T08:54:01;99763.56;;;24.03;11.57
70200;BME280;57587;55.688;37.600;2023-03-20T08:56:28;99752.19;;;23.21;11.52
70200;BME280;57587;55.688;37.600;2023-03-20T08:58:55;99751.03;;;22.79;12.24
70200;BME280;57587;55.688;37.600;2023-03-20T09:01:22;99750.63;;;22.66;11.64
70200;BME280;57587;55.688;37.600;2023-03-20T09:03:49;99748.59;;;22.24;11.95
70200;BME280;57587;55.688;37.600;2023-03-20T09:06:16;99747.44;;;21.98;12.18
70200;BME280;57587;55.688;37.600;2023-03-20T09:08:43;99745.16;;;21.68;12.40
70200;BME280;57587;55.688;37.600;2023-03-20T09:11:10;99743.56;;;21.33;12.35
70200;BME280;57587;55.688;37.600;2023-03-20T09:13:37;99747.31;;;20.76;13.01
70200;BME280;57587;55.688;37.600;2023-03-20T09:16:05;99757.75;;;20.67;13.63
70200;BME280;57587;55.688;37.600;2023-03-20T09:18:32;99746.28;;;20.20;12.92
70200;BME280;57587;55.688;37.600;2023-03-20T09:20:59;99752.31;;;19.81;13.55
70200;BME280;57587;55.688;37.600;2023-03-20T09:23:26;99743.84;;;19.66;13.87
70200;BME280;57587;55.688;37.600;2023-03-20T09:25:54;99741.63;;;19.28;14.43
70200;BME280;57587;55.688;37.600;2023-03-20T09:28:21;99742.56;;;19.10;14.54
70200;BME280;57587;55.688;37.600;2023-03-20T09:30:48;99739.72;;;19.28;15.00
70200;BME280;57587;55.688;37.600;2023-03-20T09:33:15;99742.84;;;19.84;14.24
70200;BME280;57587;55.688;37.600;2023-03-20T09:35:46;99741.22;;;20.40;13.93
70200;BME280;57587;55.688;37.600;2023-03-20T09:38:13;99725.59;;;21.15;13.39
70200;BME280;57587;55.688;37.600;2023-03-20T09:40:55;99731.91;;;22.20;13.03
70200;BME280;57587;55.688;37.600;2023-03-20T09:48:48;99719.31;;;23.48;10.37
70200;BME280;57587;55.688;37.600;2023-03-20T09:51:30;99711.09;;;22.95;10.70
70200;BME280;57587;55.688;37.600;2023-03-20T09:54:07;99717.09;;;22.38;11.53
70200;BME280;57587;55.688;37.600;2023-03-20T09:56:37;99709.81;;;22.17;11.78
70200;BME280;57587;55.688;37.600;2023-03-20T09:59:05;99699.03;;;22.27;11.33
70200;BME280;57587;55.688;37.600;2023-03-20T10:02:07;99700.41;;;22.07;11.88
70200;BME280;57587;55.688;37.600;2023-03-20T10:04:41;99693.59;;;21.61;12.35
70200;BME280;57587;55.688;37.600;2023-03-20T10:07:12;99694.34;;;21.34;12.55
70200;BME280;57587;55.688;37.600;2023-03-20T10:09:41;99696.56;;;20.82;13.18
70200;BME280;57587;55.688;37.600;2023-03-20T10:15:17;99690.78;;;19.87;13.42
70200;BME280;57587;55.688;37.600;2023-03-20T10:20:49;99680.41;;;18.19;15.33
70200;BME280;57587;55.688;37.600;2023-03-20T10:23:41;99677.59;;;17.66;15.79
70200;BME280;57587;55.688;37.600;2023-03-20T10:26:12;99676.25;;;17.57;16.36
70200;BME280;57587;55.688;37.600;2023-03-20T10:28:52;99666.22;;;17.75;16.56
70200;BME280;57587;55.688;37.600;2023-03-20T10:31:44;99669.47;;;17.66;17.08
70200;BME280;57587;55.688;37.600;2023-03-20T10:40:26;99652.84;;;18.64;17.14
70200;BME280;57587;55.688;37.600;2023-03-20T10:43:04;99658.13;;;18.71;17.16
70200;BME280;57587;55.688;37.600;2023-03-20T10:45:40;99655.09;;;19.03;17.36
70200;BME280;57587;55.688;37.600;2023-03-20T10:48:15;99652.50;;;19.08;17.36
70200;BME280;57587;55.688;37.600;2023-03-20T10:50:50;99643.94;;;19.40;17.37
70200;BME280;57587;55.688;37.600;2023-03-20T10:54:11;99647.13;;;19.48;17.06
70200;BME280;57587;55.688;37.600;2023-03-20T10:56:41;99649.22;;;19.46;17.37
70200;BME280;57587;55.688;37.600;2023-03-20T10:59:39;99642.47;;;19.08;17.43
70200;BME280;57587;55.688;37.600;2023-03-20T11:02:10;99645.72;;;18.52;17.95
70200;BME280;57587;55.688;37.600;2023-03-20T11:04:37;99630.31;;;18.40;18.95
70200;BME280;57587;55.688;37.600;2023-03-20T11:07:26;99636.28;;;18.42;19.36
70200;BME280;57587;55.688;37.600;2023-03-20T11:10:13;99634.50;;;18.25;19.32
70200;BME280;57587;55.688;37.600;2023-03-20T11:12:47;99625.97;;;17.97;19.60
70200;BME280;57587;55.688;37.600;2023-03-20T11:15:27;99626.38;;;16.97;20.08
70200;BME280;57587;55.688;37.600;2023-03-20T11:18:04;99625.97;;;16.69;20.92
70200;BME280;57587;55.688;37.600;2023-03-20T11:20:36;99623.84;;;16.02;21.43
70200;BME280;57587;55.688;37.600;2023-03-20T11:23:05;99626.97;;;15.67;21.79
70200;BME280;57587;55.688;37.600;2023-03-20T11:25:37;99625.13;;;15.48;22.37
70200;BME280;57587;55.688;37.600;2023-03-20T11:33:39;99616.47;;;14.41;24.66
70200;BME280;57587;55.688;37.600;2023-03-20T11:36:39;99611.91;;;14.22;24.61
70200;BME280;57587;55.688;37.600;2023-03-20T11:39:22;99607.72;;;13.79;25.09
70200;BME280;57587;55.688;37.600;2023-03-20T11:41:52;99598.56;;;13.54;25.28
70200;BME280;57587;55.688;37.600;2023-03-20T11:44:24;99604.75;;;13.13;26.17
70200;BME280;57587;55.688;37.600;2023-03-20T11:49:25;99602.56;;;12.54;26.73
70200;BME280;57587;55.688;37.600;2023-03-20T11:51:58;99605.00;;;12.49;26.89
70200;BME280;57587;55.688;37.600;2023-03-20T11:54:28;99594.41;;;12.12;26.94
70200;BME280;57587;55.688;37.600;2023-03-20T11:56:57;99584.91;;;11.73;28.04
70200;BME280;57587;55.688;37.600;2023-03-20T11:59:32;99583.66;;;11.69;28.20
70200;BME280;57587;55.688;37.600;2023-03-20T12:02:03;99583.75;;;11.40;28.39
70200;BME280;57587;55.688;37.600;2023-03-20T12:04:35;99580.50;;;11.44;29.05
70200;BME280;57587;55.688;37.600;2023-03-20T12:07:12;99583.19;;;11.44;28.96
70200;BME280;57587;55.688;37.600;2023-03-20T12:10:00;99574.13;;;11.45;29.15
70200;BME280;57587;55.688;37.600;2023-03-20T12:12:43;99568.59;;;11.47;29.15
70200;BME280;57587;55.688;37.600;2023-03-20T12:26:03;99550.03;;;11.09;29.64
70200;BME280;57587;55.688;37.600;2023-03-20T12:28:46;99553.16;;;10.98;30.29
70200;BME280;57587;55.688;37.600;2023-03-20T12:31:43;99553.09;;;10.76;30.43
70200;BME280;57587;55.688;37.600;2023-03-20T12:34:34;99558.00;;;10.73;30.40
70200;BME280;57587;55.688;37.600;2023-03-20T12:37:03;99550.25;;;10.63;30.44
70200;BME280;57587;55.688;37.600;2023-03-20T12:39:43;99546.00;;;10.54;31.11
70200;BME280;57587;55.688;37.600;2023-03-20T12:50:57;99535.31;;;10.69;30.94
70200;BME280;57587;55.688;37.600;2023-03-20T12:59:19;99527.53;;;10.74;30.97
70200;BME280;57587;55.688;37.600;2023-03-20T13:01:55;99526.34;;;10.61;30.71
70200;BME280;57587;55.688;37.600;2023-03-20T13:07:25;99517.69;;;10.59;31.37
70200;BME280;57587;55.688;37.600;2023-03-20T13:10:08;99522.66;;;10.63;31.25
70200;BME280;57587;55.688;37.600;2023-03-20T13:13:05;99509.38;;;10.54;30.59
70200;BME280;57587;55.688;37.600;2023-03-20T13:15:52;99506.78;;;10.46;30.75
70200;BME280;57587;55.688;37.600;2023-03-20T13:18:49;99501.91;;;10.35;30.23
70200;BME280;57587;55.688;37.600;2023-03-20T13:21:32;99494.25;;;10.32;30.85
70200;BME280;57587;55.688;37.600;2023-03-20T13:24:13;99492.56;;;10.31;30.70
70200;BME280;57587;55.688;37.600;2023-03-20T13:26:51;99497.94;;;10.31;31.22
70200;BME280;57587;55.688;37.600;2023-03-20T13:32:13;99495.09;;;10.32;31.91
70200;BME280;57587;55.688;37.600;2023-03-20T13:40:29;99486.88;;;10.34;31.48
70200;BME280;57587;55.688;37.600;2023-03-20T13:45:43;99476.53;;;10.31;31.65
70200;BME280;57587;55.688;37.600;2023-03-20T13:50:48;99480.88;;;10.32;31.58
70200;BME280;57587;55.688;37.600;2023-03-20T13:53:23;99480.59;;;10.27;32.97
70200;BME280;57587;55.688;37.600;2023-03-20T14:01:42;99462.94;;;10.18;33.13
70200;BME280;57587;55.688;37.600;2023-03-20T14:04:16;99461.75;;;10.05;33.21
70200;BME280;57587;55.688;37.600;2023-03-20T14:13:04;99445.94;;;9.81;33.83
70200;BME280;57587;55.688;37.600;2023-03-20T14:15:34;99446.69;;;9.75;34.30
70200;BME280;57587;55.688;37.600;2023-03-20T14:18:05;99449.44;;;9.66;34.17
70200;BME280;57587;55.688;37.600;2023-03-20T14:20:36;99446.41;;;9.69;34.44
70200;BME280;57587;55.688;37.600;2023-03-20T14:23:05;99441.44;;;9.66;34.70
70200;BME280;57587;55.688;37.600;2023-03-20T14:25:39;99439.94;;;9.64;34.95
70200;BME280;57587;55.688;37.600;2023-03-20T14:30:44;99443.50;;;9.56;35.21
70200;BME280;57587;55.688;37.600;2023-03-20T14:35:47;99437.13;;;9.42;35.44
70200;BME280;57587;55.688;37.600;2023-03-20T14:41:08;99442.72;;;9.33;36.35
70200;BME280;57587;55.688;37.600;2023-03-20T14:44:02;99435.31;;;9.20;37.08
70200;BME280;57587;55.688;37.600;2023-03-20T14:49:23;99435.50;;;8.87;37.70
70200;BME280;57587;55.688;37.600;2023-03-20T14:51:58;99435.34;;;8.89;37.50
70200;BME280;57587;55.688;37.600;2023-03-20T14:54:30;99428.34;;;8.88;37.89
70200;BME280;57587;55.688;37.600;2023-03-20T14:57:17;99432.19;;;8.85;37.88
70200;BME280;57587;55.688;37.600;2023-03-20T14:59:48;99429.69;;;8.84;38.10
70200;BME280;57587;55.688;37.600;2023-03-20T15:02:35;99427.28;;;8.66;38.22
70200;BME280;57587;55.688;37.600;2023-03-20T15:05:02;99434.84;;;8.54;38.27
70200;BME280;57587;55.688;37.600;2023-03-20T15:07:35;99435.19;;;8.51;38.47
70200;BME280;57587;55.688;37.600;2023-03-20T15:10:04;99426.72;;;8.47;38.57
70200;BME280;57587;55.688;37.600;2023-03-20T15:12:35;99436.56;;;8.47;39.37
70200;BME280;57587;55.688;37.600;2023-03-20T15:15:06;99435.25;;;8.43;39.35
70200;BME280;57587;55.688;37.600;2023-03-20T15:17:40;99435.75;;;8.38;39.18
70200;BME280;57587;55.688;37.600;2023-03-20T15:20:18;99431.91;;;8.32;39.06
70200;BME280;57587;55.688;37.600;2023-03-20T15:22:56;99425.13;;;8.22;39.54
70200;BME280;57587;55.688;37.600;2023-03-20T15:25:38;99426.16;;;8.21;39.78
70200;BME280;57587;55.688;37.600;2023-03-20T15:28:07;99431.50;;;8.13;39.71
70200;BME280;57587;55.688;37.600;2023-03-20T15:30:36;99425.00;;;8.07;39.60
70200;BME280;57587;55.688;37.600;2023-03-20T15:33:05;99427.00;;;8.05;39.78
70200;BME280;57587;55.688;37.600;2023-03-20T15:35:36;99432.03;;;8.00;40.25
70200;BME280;57587;55.688;37.600;2023-03-20T15:38:05;99426.38;;;7.95;40.44
70200;BME280;57587;55.688;37.600;2023-03-20T15:40:38;99420.28;;;7.70;41.06